Klamath, CA (95548)

6:24 PM PST on January 24, 2017 (GMT -0800)
Klamath Heights | | Change Station
Active Advisory: Small Craft Advisory

Elev 60 ft 41.52 °N, 124.03 °W | Updated 24 seconds ago

Clear
Clear
41.9 °F
Feels Like 42 °F
N
0.0
Wind Variable Wind from East

Today
High -- | Low -- °F
--% Chance of Precip.
Yesterday
High -- | Low -- °F
Precip. -- in
Pressure 30.19 in
Visibility 10.0 miles
Clouds Clear
Windchill 42 °F
Dew Point 40 °F
Humidity 94%
Rainfall 0.00 in
Snow Depth Not available.
7:34 AM 5:22 PM
Waning Crescent, 8% visible
METAR KCEC 250156Z AUTO 00000KT 10SM CLR 07/03 A3018 RMK AO2 SLP222 T00670028
Pressure 30.19 in
Visibility 10.0 miles
Clouds Clear
Windchill 42 °F
Dew Point 40 °F
Humidity 94%
Rainfall 0.00 in
Snow Depth Not available.
7:34 AM 5:22 PM
Waning Crescent, 8% visible
METAR KCEC 250156Z AUTO 00000KT 10SM CLR 07/03 A3018 RMK AO2 SLP222 T00670028

Get Your Daily Forecast Email!

Thanks for signing up!

Be on the lookout for a verification email in your inbox.

You'll start receiving the daily forecast at 8 AM.

×

10-Day Weather Forecast

Almanac

Astronomy

Jan. 24, 2017 Rise Set
Actual Time
Civil Twilight
Nautical Twilight
Astronomical Twilight
Moon
Length of Visible Light
Length of Day
Tomorrow will be .
, % of the Moon is Illuminated

Today's Extremes

State Highs State Lows

Community

WunderPhotos

Upload Photos

1,962,540 photos uploaded!

WunderBlog® & News

Nearby

Air Quality

  Air Quality AQ Index Pollutant
Not available.

Snow Depth

Station Depth Elevation

Earthquake Activity

City Distance Mag. Time & Date
Minimum magnitude displayed is 2.5.

Coastal Water Temperatures

Place Temperature

Stations

Nearby Weather Stations

Station Location Temp. Windchill Dew Point Humidity Wind Precip. Elev Updated Type
                   

Watches & Warnings

Small Craft Advisory
Issued: 2:42 PM PST Jan. 24, 2017 – National Weather Service

... Small Craft Advisory in effect from 4 PM Wednesday to 10 am
PST Friday...

The National Weather Service in Eureka has issued a Small Craft
Advisory... which is in effect from 4 PM Wednesday to 10 am PST
Friday.

* Winds... NE wind 5 to 15 kt becoming southerly during
Wednesday... then returning to northerly on Thursday.

* Waves... seas will build to 15 feet at 20 seconds during
Wednesday night... then subside to 10 feet at 16 seconds by
Friday morning.

Precautionary/preparedness actions...

A Small Craft Advisory for hazardous seas means that waves will be
steep enough to create a potential hazard to smaller vessels and
inexperienced mariners.